createdAt,value
2017-10-01T00:00:48.772Z,96.42
2017-10-01T00:02:41.968Z,96.22
2017-10-01T00:03:41.816Z,96.61
2017-10-01T00:05:44.004Z,96.51
2017-10-01T00:06:35.332Z,96.80
2017-10-01T00:08:38.335Z,96.22
2017-10-01T00:09:36.176Z,96.51
2017-10-01T00:11:31.900Z,96.70
2017-10-01T00:12:22.727Z,95.89
2017-10-01T00:14:16.108Z,96.03
2017-10-01T00:15:24.888Z,96.51
2017-10-01T00:17:18.847Z,96.32
2017-10-01T00:18:09.127Z,96.51
2017-10-01T00:20:11.261Z,96.56
2017-10-01T00:21:12.310Z,96.66
2017-10-01T00:23:05.623Z,96.75
2017-10-01T00:23:56.924Z,97.71
2017-10-01T00:25:58.124Z,97.42
2017-10-01T00:26:59.048Z,97.80
2017-10-01T00:28:53.640Z,97.22
2017-10-01T00:29:44.820Z,96.94
2017-10-01T00:31:39.347Z,97.22
2017-10-01T00:32:48.910Z,97.22
2017-10-01T00:34:44.466Z,97.22
2017-10-01T00:35:35.719Z,97.22
2017-10-01T00:37:38.826Z,97.32
2017-10-01T00:38:38.843Z,97.42
2017-10-01T00:40:31.116Z,97.32
2017-10-01T00:41:31.215Z,97.22
2017-10-01T00:43:25.680Z,97.32
2017-10-01T00:44:17.970Z,97.71
2017-10-01T00:46:19.614Z,96.75
2017-10-01T00:47:10.966Z,97.42
2017-10-01T00:49:14.583Z,97.32
2017-10-01T00:50:04.397Z,97.22
2017-10-01T00:52:06.588Z,96.84
2017-10-01T00:53:06.451Z,96.84
2017-10-01T00:55:01.882Z,96.56
2017-10-01T00:55:53.289Z,96.56
2017-10-01T00:57:55.413Z,96.27
2017-10-01T00:58:46.595Z,96.56
2017-10-01T01:00:50.283Z,96.84
2017-10-01T01:01:48.337Z,96.56
2017-10-01T01:03:44.811Z,96.37
2017-10-01T01:04:44.758Z,96.46
2017-10-01T01:06:36.339Z,96.66
2017-10-01T01:07:28.737Z,96.37
2017-10-01T01:09:31.780Z,96.75
2017-10-01T01:10:23.889Z,97.03
2017-10-01T01:12:28.160Z,96.17
2017-10-01T01:13:19.344Z,96.46
2017-10-01T01:15:22.240Z,96.75
2017-10-01T01:16:15.007Z,96.17
2017-10-01T01:18:18.039Z,96.27
2017-10-01T01:19:09.204Z,96.37
2017-10-01T01:21:03.604Z,96.46
2017-10-01T01:22:03.474Z,96.08
2017-10-01T01:23:58.105Z,96.66
2017-10-01T01:24:57.987Z,96.27
2017-10-01T01:27:01.109Z,96.08
2017-10-01T01:27:52.451Z,96.37
2017-10-01T01:29:46.849Z,95.98
2017-10-01T01:30:47.017Z,95.98
2017-10-01T01:32:49.249Z,96.17
2017-10-01T01:33:40.253Z,95.98
2017-10-01T01:35:42.418Z,96.46
2017-10-01T01:36:33.694Z,95.79
2017-10-01T01:38:35.830Z,96.46
2017-10-01T01:39:28.093Z,95.89
2017-10-01T01:41:32.134Z,95.70
2017-10-01T01:42:31.235Z,96.46
2017-10-01T01:44:25.541Z,95.89
2017-10-01T01:45:17.981Z,96.37
2017-10-01T01:47:21.055Z,95.79
2017-10-01T01:48:12.299Z,96.46
2017-10-01T01:50:14.636Z,96.17
2017-10-01T01:51:05.945Z,96.08
2017-10-01T01:53:00.391Z,95.98
2017-10-01T01:54:09.156Z,96.75
2017-10-01T01:56:03.444Z,96.46
2017-10-01T01:56:53.817Z,96.37
2017-10-01T01:58:47.291Z,95.89
2017-10-01T01:59:47.240Z,95.89
2017-10-01T02:01:49.232Z,96.37
2017-10-01T02:02:41.646Z,96.37
2017-10-01T02:04:43.322Z,95.70
2017-10-01T02:05:36.134Z,96.27
2017-10-01T02:07:29.482Z,96.66
2017-10-01T02:08:29.549Z,96.37
2017-10-01T02:10:23.950Z,96.37
2017-10-01T02:11:23.870Z,96.37
2017-10-01T02:13:27.017Z,95.79
2017-10-01T02:14:17.241Z,96.17
2017-10-01T02:16:10.778Z,96.75
2017-10-01T02:17:10.768Z,96.08
2017-10-01T02:19:05.154Z,96.56
2017-10-01T02:20:05.124Z,96.46
2017-10-01T02:21:58.578Z,96.37
2017-10-01T02:23:07.515Z,96.37
2017-10-01T02:25:00.729Z,96.56
2017-10-01T02:25:51.898Z,96.08
2017-10-01T02:27:45.339Z,95.89
2017-10-01T02:28:45.436Z,96.84
2017-10-01T02:30:47.636Z,95.79
2017-10-01T02:31:38.761Z,95.79
2017-10-01T02:33:32.211Z,96.37
2017-10-01T02:34:32.369Z,96.27
2017-10-01T02:36:25.648Z,96.37
2017-10-01T02:37:25.576Z,96.75
2017-10-01T02:39:20.076Z,96.17
2017-10-01T02:40:19.998Z,96.56
2017-10-01T02:42:23.116Z,95.98
2017-10-01T02:43:15.381Z,95.61
2017-10-01T02:45:17.492Z,96.27
2017-10-01T02:46:08.863Z,95.89
2017-10-01T02:48:13.980Z,96.46
2017-10-01T02:49:04.256Z,95.89
2017-10-01T02:50:57.398Z,95.98
2017-10-01T02:51:57.249Z,95.98
2017-10-01T02:53:59.532Z,95.98
2017-10-01T02:54:50.707Z,96.27
2017-10-01T02:56:44.168Z,95.70
2017-10-01T02:57:44.069Z,95.79
2017-10-01T02:59:37.573Z,96.46
2017-10-01T03:00:37.540Z,96.46
2017-10-01T03:02:30.942Z,96.17
2017-10-01T03:03:40.699Z,95.61
2017-10-01T03:05:31.656Z,97.42
2017-10-01T03:06:23.981Z,96.56
2017-10-01T03:08:26.230Z,96.27
2017-10-01T03:09:17.399Z,96.46
2017-10-01T03:11:11.833Z,95.89
2017-10-01T03:12:11.783Z,96.17
2017-10-01T03:14:06.222Z,96.56
2017-10-01T03:15:06.210Z,96.46
2017-10-01T03:17:00.704Z,95.98
2017-10-01T03:18:00.512Z,95.79
2017-10-01T03:20:02.686Z,96.08
2017-10-01T03:20:53.949Z,96.37
2017-10-01T03:22:56.100Z,96.08
2017-10-01T03:23:48.516Z,96.17
2017-10-01T03:25:49.576Z,97.22
2017-10-01T03:26:41.907Z,96.66
2017-10-01T03:28:44.909Z,96.75
2017-10-01T03:29:36.314Z,96.75
2017-10-01T03:31:38.265Z,96.27
2017-10-01T03:32:39.536Z,96.08
2017-10-01T03:34:32.892Z,96.75
2017-10-01T03:35:32.826Z,96.84
2017-10-01T03:37:26.200Z,96.46
2017-10-01T03:38:17.612Z,96.46
2017-10-01T03:40:18.686Z,96.66
2017-10-01T03:41:11.026Z,96.66
2017-10-01T03:43:13.675Z,96.66
2017-10-01T03:44:04.855Z,96.46
2017-10-01T03:46:07.871Z,96.56
2017-10-01T03:46:59.293Z,95.61
2017-10-01T03:49:02.322Z,95.89
2017-10-01T03:49:53.734Z,96.08
2017-10-01T03:51:56.693Z,95.70
2017-10-01T03:52:47.109Z,95.12
2017-10-01T03:54:49.200Z,95.61
2017-10-01T03:55:50.295Z,95.32
2017-10-01T03:57:44.609Z,95.70
2017-10-01T03:58:34.962Z,95.51
2017-10-01T04:00:28.471Z,95.61
2017-10-01T04:01:28.311Z,95.98
2017-10-01T04:03:22.805Z,94.93
2017-10-01T04:04:22.809Z,94.74
2017-10-01T04:06:17.306Z,95.03
2017-10-01T04:07:24.819Z,95.03
2017-10-01T04:09:20.262Z,95.32
2017-10-01T04:10:11.561Z,95.61
2017-10-01T04:12:13.639Z,95.89
2017-10-01T04:13:06.008Z,95.94
2017-10-01T04:15:10.126Z,96.03
2017-10-01T04:16:01.367Z,96.08
2017-10-01T04:17:54.917Z,96.13
2017-10-01T04:18:54.864Z,96.22
2017-10-01T04:20:57.876Z,96.32
2017-10-01T04:21:50.203Z,96.61
2017-10-01T04:23:52.277Z,96.70
2017-10-01T04:24:54.136Z,96.61
2017-10-01T04:26:46.717Z,96.32
2017-10-01T04:27:38.012Z,96.61
2017-10-01T04:29:31.481Z,96.70
2017-10-01T04:30:31.479Z,96.51
2017-10-01T04:32:34.557Z,96.41
2017-10-01T04:33:24.886Z,96.41
2017-10-01T04:35:18.504Z,96.70
2017-10-01T04:36:18.237Z,96.61
2017-10-01T04:38:11.726Z,97.37
2017-10-01T04:39:11.688Z,97.27
2017-10-01T04:41:12.840Z,96.32
2017-10-01T04:42:05.085Z,96.41
2017-10-01T04:44:07.131Z,96.32
2017-10-01T04:44:58.474Z,96.61
2017-10-01T04:46:51.507Z,96.61
2017-10-01T04:47:59.063Z,96.41
2017-10-01T04:49:44.870Z,96.41
2017-10-01T04:50:44.935Z,96.22
2017-10-01T04:52:47.963Z,96.13
2017-10-01T04:53:39.322Z,96.22
2017-10-01T04:55:44.575Z,96.51
2017-10-01T04:56:42.286Z,96.70
2017-10-01T04:58:36.786Z,95.84
2017-10-01T04:59:29.144Z,96.70
2017-10-01T05:01:30.167Z,96.51
2017-10-01T05:02:31.221Z,95.94
2017-10-01T05:04:25.621Z,96.32
2017-10-01T05:05:23.598Z,96.13
2017-10-01T05:07:20.043Z,96.22
2017-10-01T05:08:18.167Z,96.03
2017-10-01T05:10:04.886Z,96.32
2017-10-01T05:11:04.867Z,96.61
2017-10-01T05:13:06.020Z,95.94
2017-10-01T05:13:58.316Z,95.84
2017-10-01T05:16:00.401Z,96.13
2017-10-01T05:16:51.644Z,96.13
2017-10-01T05:18:53.835Z,95.56
2017-10-01T05:19:55.774Z,95.56
2017-10-01T05:21:39.833Z,95.27
2017-10-01T05:22:47.432Z,95.46
2017-10-01T05:24:41.779Z,95.94
2017-10-01T05:25:34.287Z,95.75
2017-10-01T05:27:27.581Z,95.27
2017-10-01T05:28:27.636Z,95.12
2017-10-01T05:30:28.819Z,94.98
2017-10-01T05:31:21.092Z,94.89
2017-10-01T05:33:16.503Z,95.65
2017-10-01T05:34:16.481Z,96.17
2017-10-01T05:36:12.374Z,95.75
2017-10-01T05:37:12.344Z,96.41
2017-10-01T05:39:15.946Z,96.70
2017-10-01T05:40:06.781Z,97.37
2017-10-01T05:42:07.981Z,97.46
2017-10-01T05:43:00.332Z,96.13
2017-10-01T05:44:54.660Z,96.61
2017-10-01T05:46:02.468Z,97.37
2017-10-01T05:47:48.004Z,97.27
2017-10-01T05:48:47.976Z,97.17
2017-10-01T05:50:50.246Z,97.27
2017-10-01T05:51:51.217Z,96.98
2017-10-01T05:53:44.525Z,96.03
2017-10-01T05:54:36.922Z,96.61
2017-10-01T05:56:41.969Z,96.03
2017-10-01T05:57:33.217Z,95.65
2017-10-01T05:59:36.309Z,96.32
2017-10-01T06:00:27.612Z,96.22
2017-10-01T06:02:29.963Z,95.17
2017-10-01T06:03:22.031Z,95.17
2017-10-01T06:05:23.106Z,95.75
2017-10-01T06:06:15.553Z,95.84
2017-10-01T06:08:09.972Z,95.08
2017-10-01T06:09:09.897Z,95.27
2017-10-01T06:11:11.944Z,95.08
2017-10-01T06:12:03.372Z,95.27
2017-10-01T06:14:05.449Z,95.56
2017-10-01T06:14:56.743Z,95.17
2017-10-01T06:17:00.021Z,95.46
2017-10-01T06:17:59.073Z,95.70
2017-10-01T06:19:45.659Z,95.03
2017-10-01T06:20:54.288Z,94.84
2017-10-01T06:22:48.743Z,95.12
2017-10-01T06:23:48.768Z,94.46
2017-10-01T06:25:42.833Z,94.74
2017-10-01T06:26:41.825Z,96.08
2017-10-01T06:28:37.239Z,95.79
2017-10-01T06:29:27.457Z,95.32
2017-10-01T06:31:29.597Z,95.61
2017-10-01T06:32:29.525Z,95.79
2017-10-01T06:34:25.113Z,94.74
2017-10-01T06:35:16.342Z,94.84
2017-10-01T06:37:10.843Z,94.36
2017-10-01T06:38:20.407Z,94.27
2017-10-01T06:40:05.225Z,94.36
2017-10-01T06:41:12.415Z,95.51
2017-10-01T06:43:08.766Z,95.51
2017-10-01T06:44:10.231Z,95.22
2017-10-01T06:46:03.770Z,94.65
2017-10-01T06:46:55.065Z,94.60
2017-10-01T06:48:58.135Z,95.36
2017-10-01T06:49:57.242Z,94.12
2017-10-01T06:51:42.967Z,93.84
2017-10-01T06:52:42.839Z,93.46
2017-10-01T06:54:44.690Z,93.93
2017-10-01T06:55:36.936Z,93.26
2017-10-01T06:57:38.970Z,93.74
2017-10-01T06:58:31.275Z,93.07
2017-10-01T07:00:24.779Z,93.46
2017-10-01T07:01:24.719Z,93.55
2017-10-01T07:03:30.088Z,94.22
2017-10-01T07:04:28.380Z,94.60
2017-10-01T07:06:20.215Z,94.98
2017-10-01T07:07:11.721Z,94.12
2017-10-01T07:09:15.684Z,94.31
2017-10-01T07:10:06.020Z,94.79
2017-10-01T07:12:09.050Z,94.79
2017-10-01T07:13:01.461Z,94.70
2017-10-01T07:15:02.736Z,94.12
2017-10-01T07:15:54.832Z,94.31
2017-10-01T07:18:03.984Z,93.46
2017-10-01T07:18:49.228Z,93.93
2017-10-01T07:20:51.326Z,93.74
2017-10-01T07:21:43.165Z,94.98
2017-10-01T07:26:33.386Z,95.08
2017-10-01T07:27:33.261Z,94.89
2017-10-01T07:29:27.591Z,94.79
2017-10-01T07:30:27.729Z,94.89
2017-10-01T07:32:21.040Z,93.93
2017-10-01T07:33:22.312Z,93.93
2017-10-01T07:35:15.519Z,94.89
2017-10-01T07:36:15.503Z,95.08
2017-10-01T07:38:09.898Z,94.98
2017-10-01T07:39:09.970Z,94.70
2017-10-01T07:41:04.309Z,95.65
2017-10-01T07:42:04.376Z,96.03
2017-10-01T07:43:57.786Z,94.31
2017-10-01T07:44:57.725Z,93.93
2017-10-01T07:46:51.207Z,94.03
2017-10-01T07:47:59.843Z,94.89
2017-10-01T07:49:44.178Z,95.36
2017-10-01T07:50:44.246Z,94.89
2017-10-01T07:52:38.570Z,95.65
2017-10-01T07:53:38.537Z,95.36
2017-10-01T07:55:40.942Z,95.08
2017-10-01T07:56:40.783Z,94.60
2017-10-01T07:58:26.476Z,94.98
2017-10-01T07:59:26.486Z,94.51
2017-10-01T08:01:19.442Z,93.46
2017-10-01T08:02:19.406Z,93.46
2017-10-01T08:04:20.420Z,92.21
2017-10-01T08:05:12.834Z,92.88
2017-10-01T08:07:07.328Z,93.17
2017-10-01T08:08:07.199Z,92.88
2017-10-01T08:10:00.652Z,94.98
2017-10-01T08:11:00.631Z,93.02
2017-10-01T08:12:54.035Z,93.21
2017-10-01T08:13:54.081Z,93.02
2017-10-01T08:15:49.456Z,91.88
2017-10-01T08:16:49.420Z,90.64
2017-10-01T08:18:43.003Z,91.97
2017-10-01T08:19:42.918Z,91.50
2017-10-01T08:21:36.318Z,91.16
2017-10-01T08:22:36.283Z,90.21
2017-10-01T08:24:29.297Z,88.97
2017-10-01T08:25:29.400Z,89.06
2017-10-01T08:27:24.673Z,90.97
2017-10-01T08:28:24.674Z,91.45
2017-10-01T08:30:18.149Z,91.07
2017-10-01T08:31:18.134Z,92.41
2017-10-01T08:33:11.600Z,90.69
2017-10-01T08:34:11.569Z,90.78
2017-10-01T08:36:07.817Z,91.26
2017-10-01T08:37:06.994Z,91.16
2017-10-01T08:39:00.999Z,91.26
2017-10-01T08:40:00.984Z,91.45
2017-10-01T08:41:55.518Z,90.02
2017-10-01T08:42:55.402Z,89.83
2017-10-01T08:44:49.863Z,89.25
2017-10-01T08:45:49.895Z,90.31
2017-10-01T08:47:44.319Z,89.54
2017-10-01T08:48:44.263Z,89.64
2017-10-01T08:50:37.643Z,90.69
2017-10-01T08:51:37.713Z,92.36
2017-10-01T08:53:32.057Z,92.36
2017-10-01T08:54:32.077Z,91.21
2017-10-01T08:56:25.521Z,88.25
2017-10-01T08:57:25.503Z,89.20
2017-10-01T08:59:20.276Z,90.20
2017-10-01T09:00:18.916Z,88.87
2017-10-01T09:02:12.405Z,87.24
2017-10-01T09:03:12.402Z,87.05
2017-10-01T09:05:06.875Z,88.05
2017-10-01T09:06:06.699Z,85.66
2017-10-01T09:08:01.263Z,85.75
2017-10-01T09:09:01.168Z,87.71
2017-10-01T09:10:55.656Z,83.60
2017-10-01T09:11:55.606Z,83.50
2017-10-01T09:13:50.971Z,83.03
2017-10-01T09:14:51.040Z,83.31
2017-10-01T09:16:44.406Z,84.75
2017-10-01T09:17:44.383Z,84.59
2017-10-01T09:19:37.885Z,81.73
2017-10-01T09:20:37.962Z,78.95
2017-10-01T09:22:32.290Z,79.05
2017-10-01T09:23:32.271Z,80.77
2017-10-01T09:25:25.859Z,81.05
2017-10-01T09:26:25.762Z,79.91
2017-10-01T09:28:21.258Z,81.54
2017-10-01T09:29:21.209Z,80.87
2017-10-01T09:31:15.491Z,79.81
2017-10-01T09:32:15.171Z,79.43
2017-10-01T09:34:08.584Z,79.62
2017-10-01T09:35:08.707Z,82.11
2017-10-01T09:37:03.078Z,83.36
2017-10-01T09:38:03.051Z,79.00
2017-10-01T09:39:57.552Z,80.44
2017-10-01T09:40:57.412Z,81.68
2017-10-01T09:42:50.890Z,84.12
2017-10-01T09:43:50.901Z,82.68
2017-10-01T09:45:47.281Z,81.68
2017-10-01T09:46:47.283Z,81.30
2017-10-01T09:48:41.711Z,81.54
2017-10-01T09:49:41.822Z,81.15
2017-10-01T09:51:36.056Z,80.58
2017-10-01T09:52:36.116Z,82.01
2017-10-01T09:54:30.583Z,81.67
2017-10-01T09:55:30.712Z,82.63
2017-10-01T09:57:24.038Z,79.66
2017-10-01T09:58:23.967Z,79.47
2017-10-01T10:00:18.399Z,77.69
2017-10-01T10:01:18.411Z,77.06
2017-10-01T10:03:12.769Z,76.29
2017-10-01T10:04:12.813Z,79.64
2017-10-01T10:06:07.241Z,75.48
2017-10-01T10:07:07.287Z,73.76
2017-10-01T10:09:00.603Z,79.28
2017-10-01T10:10:00.680Z,77.75
2017-10-01T10:11:55.061Z,81.10
2017-10-01T10:12:55.135Z,79.95
2017-10-01T10:14:50.543Z,80.52
2017-10-01T10:15:50.522Z,77.51
2017-10-01T10:17:44.810Z,81.54
2017-10-01T10:18:44.831Z,81.92
2017-10-01T10:20:38.354Z,80.96
2017-10-01T10:21:38.371Z,83.36
2017-10-01T10:23:31.717Z,80.77
2017-10-01T10:24:31.754Z,81.63
2017-10-01T10:26:25.205Z,80.38
2017-10-01T10:27:25.124Z,80.10
2017-10-01T10:29:19.634Z,79.43
2017-10-01T10:30:19.634Z,78.38
2017-10-01T10:32:15.010Z,76.27
2017-10-01T10:33:14.996Z,78.66
2017-10-01T10:35:09.426Z,81.05
2017-10-01T10:36:09.505Z,78.95
2017-10-01T10:38:03.875Z,79.72
2017-10-01T10:39:03.973Z,79.72
2017-10-01T10:40:57.232Z,78.86
2017-10-01T10:41:57.256Z,81.15
2017-10-01T10:43:50.311Z,79.62
2017-10-01T10:44:50.262Z,79.14
2017-10-01T10:46:44.689Z,78.28
2017-10-01T10:47:44.778Z,83.01
2017-10-01T10:49:39.213Z,82.15
2017-10-01T10:50:39.145Z,77.94
2017-10-01T10:52:33.560Z,76.50
2017-10-01T10:53:33.515Z,76.98
2017-10-01T10:55:26.972Z,77.75
2017-10-01T10:56:26.981Z,81.48
2017-10-01T10:58:21.356Z,79.43
2017-10-01T10:59:21.363Z,78.95
2017-10-01T11:01:16.801Z,79.24
2017-10-01T11:02:16.849Z,79.33
2017-10-01T11:04:10.152Z,79.24
2017-10-01T11:05:10.777Z,79.33
2017-10-01T11:07:04.639Z,79.33
2017-10-01T11:08:04.624Z,79.33
2017-10-01T11:09:57.655Z,83.36
2017-10-01T11:10:57.647Z,81.82
2017-10-01T11:12:52.096Z,82.40
2017-10-01T11:13:52.036Z,83.26
2017-10-01T11:15:46.494Z,81.15
2017-10-01T11:16:46.504Z,80.04
2017-10-01T11:18:40.914Z,79.22
2017-10-01T11:19:40.901Z,78.55
2017-10-01T11:21:35.280Z,78.45
2017-10-01T11:22:35.373Z,78.97
2017-10-01T11:24:29.765Z,78.15
2017-10-01T11:25:29.741Z,74.95
2017-10-01T11:27:23.156Z,73.80
2017-10-01T11:28:23.217Z,74.57
2017-10-01T11:30:16.519Z,76.82
2017-10-01T11:31:16.594Z,72.32
2017-10-01T11:33:10.031Z,72.61
2017-10-01T11:34:10.036Z,73.76
2017-10-01T11:36:03.517Z,76.92
2017-10-01T11:37:03.444Z,77.78
2017-10-01T11:38:56.869Z,77.11
2017-10-01T11:39:56.956Z,78.07
2017-10-01T11:41:51.301Z,74.91
2017-10-01T11:42:51.229Z,75.07
2017-10-01T11:44:45.731Z,76.15
2017-10-01T11:45:45.713Z,74.72
2017-10-01T11:47:39.156Z,76.44
2017-10-01T11:48:39.119Z,75.10
2017-10-01T11:50:33.532Z,74.72
2017-10-01T11:51:33.511Z,75.39
2017-10-01T11:53:26.978Z,78.45
2017-10-01T11:54:35.720Z,77.11
2017-10-01T11:56:20.371Z,74.11
2017-10-01T11:57:20.465Z,76.15
2017-10-01T11:59:14.819Z,75.39
2017-10-01T12:00:14.813Z,75.01
2017-10-01T12:02:08.250Z,73.57
2017-10-01T12:03:08.208Z,73.09
2017-10-01T12:05:02.705Z,75.20
2017-10-01T12:06:02.660Z,76.10
2017-10-01T12:07:55.649Z,73.86
2017-10-01T12:08:55.653Z,72.42
2017-10-01T12:10:49.145Z,77.11
2017-10-01T12:11:49.058Z,77.95
2017-10-01T12:13:42.491Z,72.79
2017-10-01T12:14:42.513Z,68.51
2017-10-01T12:16:37.022Z,67.38
2017-10-01T12:17:36.902Z,67.35
2017-10-01T12:19:30.921Z,69.24
2017-10-01T12:20:30.987Z,68.28
2017-10-01T12:22:24.413Z,67.83
2017-10-01T12:23:24.371Z,68.08
2017-10-01T12:25:18.830Z,72.75
2017-10-01T12:26:18.840Z,67.92
2017-10-01T12:28:12.257Z,71.47
2017-10-01T12:29:12.248Z,71.86
2017-10-01T12:31:05.642Z,71.15
2017-10-01T12:32:05.655Z,70.13
2017-10-01T12:33:59.126Z,68.57
2017-10-01T12:34:59.075Z,69.97
2017-10-01T12:36:52.505Z,72.28
2017-10-01T12:37:52.527Z,69.30
2017-10-01T12:39:46.996Z,68.50
2017-10-01T12:40:55.592Z,68.69
2017-10-01T12:42:42.351Z,73.00
2017-10-01T12:43:42.444Z,72.75
2017-10-01T12:45:36.881Z,69.84
2017-10-01T12:46:37.005Z,71.37
2017-10-01T12:48:30.227Z,72.33
2017-10-01T12:49:30.225Z,71.15
2017-10-01T12:51:23.602Z,72.97
2017-10-01T12:52:23.622Z,72.11
2017-10-01T12:54:17.003Z,70.48
2017-10-01T12:55:17.104Z,71.44
2017-10-01T12:57:10.744Z,71.34
2017-10-01T12:58:10.728Z,70.67
2017-10-01T13:00:04.183Z,71.63
2017-10-01T13:01:04.177Z,72.78
2017-10-01T13:02:57.663Z,74.60
2017-10-01T13:03:57.534Z,73.58
2017-10-01T13:05:50.989Z,71.95
2017-10-01T13:06:51.002Z,69.71
2017-10-01T13:08:44.408Z,70.03
2017-10-01T13:09:44.395Z,70.70
2017-10-01T13:11:38.796Z,69.87
2017-10-01T13:12:38.825Z,70.26
2017-10-01T13:14:33.302Z,65.23
2017-10-01T13:15:33.224Z,63.79
2017-10-01T13:17:36.078Z,64.02
2017-10-01T13:18:27.398Z,66.52
2017-10-01T13:20:34.760Z,72.91
2017-10-01T13:21:23.156Z,69.93
2017-10-01T13:23:17.537Z,68.46
2017-10-01T13:24:25.153Z,72.39
2017-10-01T13:26:11.964Z,72.01
2017-10-01T13:27:20.608Z,71.09
2017-10-01T13:29:04.364Z,70.42
2017-10-01T13:30:04.387Z,71.44
2017-10-01T13:32:06.739Z,74.35
2017-10-01T13:33:06.460Z,70.86
2017-10-01T13:35:00.635Z,72.78
2017-10-01T13:36:01.954Z,73.26
2017-10-01T13:37:47.379Z,72.20
2017-10-01T13:38:55.477Z,71.82
2017-10-01T13:40:50.494Z,70.09
2017-10-01T13:41:51.871Z,69.52
2017-10-01T13:43:44.256Z,71.82
2017-10-01T13:44:43.207Z,72.30
2017-10-01T13:46:30.266Z,73.83
2017-10-01T13:47:39.260Z,72.11
2017-10-01T13:49:24.482Z,69.52
2017-10-01T13:50:24.572Z,69.62
2017-10-01T13:52:17.814Z,67.69
2017-10-01T13:53:17.835Z,67.12
2017-10-01T13:55:10.998Z,69.42
2017-10-01T13:56:19.166Z,70.00
2017-10-01T13:58:05.363Z,72.39
2017-10-01T13:59:05.397Z,71.25
2017-10-01T14:00:58.839Z,72.49
2017-10-01T14:01:58.755Z,72.49
2017-10-01T14:04:00.833Z,75.75
2017-10-01T14:04:53.157Z,74.79
2017-10-01T14:06:46.626Z,71.28
2017-10-01T14:07:46.559Z,70.70
2017-10-01T14:09:54.713Z,73.62
2017-10-01T14:10:54.813Z,72.75
2017-10-01T14:12:55.746Z,71.98
2017-10-01T14:13:48.288Z,71.22
2017-10-01T14:15:42.400Z,70.26
2017-10-01T14:16:42.470Z,70.17
2017-10-01T14:18:38.181Z,70.93
2017-10-01T14:19:37.694Z,68.73
2017-10-01T14:21:38.816Z,69.01
2017-10-01T14:22:38.511Z,68.44
2017-10-01T14:24:33.407Z,69.65
2017-10-01T14:25:24.612Z,71.28
2017-10-01T14:27:18.203Z,70.90
2017-10-01T14:28:18.148Z,71.86
2017-10-01T14:30:12.599Z,72.91
2017-10-01T14:31:12.590Z,74.35
2017-10-01T14:33:14.633Z,74.22
2017-10-01T14:34:05.934Z,73.16
2017-10-01T14:35:59.392Z,72.74
2017-10-01T14:36:59.409Z,72.64
2017-10-01T14:38:53.815Z,72.74
2017-10-01T14:39:53.831Z,72.78
2017-10-01T14:41:47.309Z,72.20
2017-10-01T14:42:47.239Z,71.25
2017-10-01T14:44:40.598Z,70.57
2017-10-01T14:45:40.588Z,71.44
2017-10-01T14:47:34.000Z,70.09
2017-10-01T14:48:33.995Z,70.48
2017-10-01T14:50:27.375Z,71.34
2017-10-01T14:51:27.407Z,69.10
2017-10-01T14:53:20.870Z,69.10
2017-10-01T14:54:20.840Z,71.78
2017-10-01T14:56:14.361Z,73.09
2017-10-01T14:57:14.441Z,73.66
2017-10-01T14:59:07.843Z,76.73
2017-10-01T15:00:07.774Z,73.47
2017-10-01T15:02:02.229Z,77.02
2017-10-01T15:03:02.191Z,78.45
2017-10-01T15:04:55.631Z,80.52
2017-10-01T15:05:55.564Z,78.42
2017-10-01T15:07:51.033Z,77.36
2017-10-01T15:08:51.039Z,76.21
2017-10-01T15:10:44.418Z,78.22
2017-10-01T15:11:44.436Z,78.13
2017-10-01T15:13:37.893Z,79.57
2017-10-01T15:14:37.930Z,78.89
2017-10-01T15:16:31.404Z,79.57
2017-10-01T15:17:31.365Z,80.14
2017-10-01T15:19:37.697Z,79.81
2017-10-01T15:20:27.755Z,79.62
2017-10-01T15:22:21.818Z,79.33
2017-10-01T15:23:21.242Z,80.04
2017-10-01T15:25:15.728Z,79.05
2017-10-01T15:26:15.697Z,76.84
2017-10-01T15:28:08.692Z,77.94
2017-10-01T15:29:08.815Z,79.08
2017-10-01T15:31:03.150Z,78.38
2017-10-01T15:32:03.189Z,77.42
2017-10-01T15:33:56.663Z,78.86
2017-10-01T15:34:56.591Z,81.82
2017-10-01T15:36:50.077Z,81.44
2017-10-01T15:37:49.998Z,80.73
2017-10-01T15:39:44.433Z,80.92
2017-10-01T15:40:44.437Z,82.54
2017-10-01T15:42:38.854Z,79.10
2017-10-01T15:43:38.839Z,78.81
2017-10-01T15:45:32.245Z,82.26
2017-10-01T15:46:32.300Z,82.45
2017-10-01T15:48:26.693Z,81.78
2017-10-01T15:49:26.617Z,81.11
2017-10-01T15:51:22.123Z,83.03
2017-10-01T15:52:22.072Z,80.63
2017-10-01T15:54:16.561Z,82.45
2017-10-01T15:55:16.487Z,82.07
2017-10-01T15:57:09.925Z,83.31
2017-10-01T15:58:09.890Z,83.50
2017-10-01T16:00:12.017Z,84.08
2017-10-01T16:01:04.296Z,83.98
2017-10-01T16:02:58.713Z,85.13
2017-10-01T16:03:58.734Z,85.22
2017-10-01T16:05:52.128Z,86.37
2017-10-01T16:06:52.106Z,86.37
2017-10-01T16:08:45.642Z,86.47
2017-10-01T16:09:45.608Z,86.52
2017-10-01T16:11:38.977Z,87.57
2017-10-01T16:12:38.973Z,86.23
2017-10-01T16:14:32.408Z,86.52
2017-10-01T16:15:32.482Z,86.71
2017-10-01T16:17:25.840Z,87.57
2017-10-01T16:18:25.785Z,87.48
2017-10-01T16:20:19.188Z,87.48
2017-10-01T16:21:19.178Z,87.38
2017-10-01T16:23:12.584Z,87.66
2017-10-01T16:24:12.610Z,88.05
2017-10-01T16:26:07.008Z,88.72
2017-10-01T16:27:07.068Z,88.72
2017-10-01T16:29:01.483Z,87.95
2017-10-01T16:30:01.606Z,87.86
2017-10-01T16:32:03.502Z,89.01
2017-10-01T16:32:55.931Z,88.81
2017-10-01T16:34:49.408Z,89.01
2017-10-01T16:35:49.256Z,88.91
2017-10-01T16:37:44.635Z,89.29
2017-10-01T16:38:44.681Z,89.15
2017-10-01T16:40:38.088Z,89.34
2017-10-01T16:41:38.086Z,89.73
2017-10-01T16:43:32.544Z,89.73
2017-10-01T16:44:32.603Z,89.44
2017-10-01T16:46:27.965Z,89.44
2017-10-01T16:47:27.908Z,90.35
2017-10-01T16:49:21.386Z,90.83
2017-10-01T16:50:21.338Z,90.45
2017-10-01T16:52:15.733Z,90.25
2017-10-01T16:53:15.714Z,89.39
2017-10-01T16:55:11.124Z,89.59
2017-10-01T16:56:11.182Z,89.87
2017-10-01T16:58:05.603Z,90.64
2017-10-01T16:59:05.593Z,90.83
2017-10-01T17:00:58.992Z,90.06
2017-10-01T17:01:58.988Z,90.06
2017-10-01T17:03:54.387Z,90.88
2017-10-01T17:04:54.387Z,91.26
2017-10-01T17:06:47.904Z,90.88
2017-10-01T17:07:47.776Z,89.92
2017-10-01T17:09:41.153Z,91.31
2017-10-01T17:10:41.203Z,91.78
2017-10-01T17:12:35.768Z,90.83
2017-10-01T17:13:44.275Z,91.21
2017-10-01T17:15:37.664Z,91.21
2017-10-01T17:16:30.154Z,91.02
2017-10-01T17:18:23.158Z,91.31
2017-10-01T17:19:31.886Z,91.78
2017-10-01T17:21:18.540Z,91.21
2017-10-01T17:22:18.542Z,91.41
2017-10-01T17:24:11.927Z,91.12
2017-10-01T17:25:11.982Z,91.07
2017-10-01T17:27:17.172Z,91.07
2017-10-01T17:28:07.483Z,91.74
2017-10-01T17:30:09.529Z,92.03
2017-10-01T17:31:01.824Z,92.41
2017-10-01T17:33:03.140Z,90.98
2017-10-01T17:33:55.376Z,91.27
2017-10-01T17:35:58.498Z,91.46
2017-10-01T17:36:49.785Z,91.64
2017-10-01T17:38:50.897Z,91.36
2017-10-01T17:39:43.111Z,90.88
2017-10-01T17:41:38.486Z,91.64
2017-10-01T17:42:41.165Z,90.98
2017-10-01T17:44:31.978Z,91.27
2017-10-01T17:45:31.947Z,91.17
2017-10-01T17:47:25.388Z,91.46
2017-10-01T17:48:25.420Z,90.79
2017-10-01T17:50:18.766Z,92.32
2017-10-01T17:51:18.749Z,91.83
2017-10-01T17:53:13.131Z,91.46
2017-10-01T17:54:13.147Z,91.46
2017-10-01T17:56:07.619Z,91.93
2017-10-01T17:57:07.647Z,92.03
2017-10-01T17:59:00.984Z,91.46
2017-10-01T18:00:00.967Z,91.88
2017-10-01T18:01:55.424Z,91.13
2017-10-01T18:02:55.418Z,90.55
2017-10-01T18:04:48.800Z,91.22
2017-10-01T18:05:48.834Z,91.69
2017-10-01T18:07:50.874Z,91.13
2017-10-01T18:08:43.214Z,91.03
2017-10-01T18:10:36.647Z,91.50
2017-10-01T18:11:36.704Z,92.17
2017-10-01T18:13:30.085Z,91.69
2017-10-01T18:14:30.077Z,91.03
2017-10-01T18:16:23.477Z,91.22
2017-10-01T18:17:23.452Z,91.31
2017-10-01T18:19:16.901Z,91.41
2017-10-01T18:20:16.912Z,91.69
2017-10-01T18:22:11.455Z,92.27
2017-10-01T18:23:11.470Z,92.08
2017-10-01T18:25:05.827Z,91.13
2017-10-01T18:26:05.840Z,91.41
2017-10-01T18:27:59.422Z,91.17
2017-10-01T18:28:59.313Z,91.65
2017-10-01T18:30:52.722Z,91.36
2017-10-01T18:31:52.672Z,91.74
2017-10-01T18:33:46.179Z,91.27
2017-10-01T18:34:46.191Z,92.03
2017-10-01T18:36:39.809Z,92.22
2017-10-01T18:37:39.743Z,91.74
2017-10-01T18:39:33.229Z,92.22
2017-10-01T18:40:33.157Z,91.65
2017-10-01T18:42:26.715Z,90.79
2017-10-01T18:43:26.527Z,90.98